US-0742 weather

34S Airport
United States

Public forecast

Using degrees Fahrenheit for public forecast. Weather courtesy of forecast.io.

METAR (pilot weather report)

Report is more than 6 hours old.

Closest report is Nouakchott International Airport, 82.0 nm (151.9 km) SE. Retrieved 2016/06/23 11:30 UTC (3 years ago):

GQNN 231130Z 22008KT 190V250 7000 BKN010 26/18 Q1013 NOSIG

TAF (pilot weather forecast)

Forecast is more than 12 hours old.

Closest forecast is Nouakchott–Oumtounsy International Airport, 71.9 nm (133.1 km) SE. Retrieved 2019/07/23 00:00 UTC (1 day ago):

TAF GQNO 232300Z 2400/2506 33010KT 7000 NSC BECMG 2406/2409 25013KT